Decoded Metar for WBGG (KUCHING in MALAYSIA) (IATA:KCH) | Meteo·Mobile Aviation Weather
aviador You're here:

WBGG Decoded Metar

KUCHING in MALAYSIA
Report Time2019-10-19 22:30:00
UTC Time2019-10-19 22:55:29
Flight Rules vfr VFR
WindVRB at 03 kt
Visibility9999 m
Phenomena:N/A
Clouds:Few 020 Hf
Scattered 150 Hf
Broken 300 Hf
Ceiling30,000 ft
Temp24°C (ISA +9)
Dew Point24°C (100% RH)
QNH1010 hPa
Density Alt1,647 ft
Elevation89 ft
Report Wrong Elevation
Raw Report
WBGG 192230Z VRB03KT 9999 FEW020 SCT150 BKN300 24/24 Q1010
NOSIG=

Extra information for WBGG:More info

Metar Taf Metar & Taf Last 4 Metars F.Rules Stats Wind Profile Meteogram Temp Stats Airport Information Weather charts Add Link Nearby VenuesMetar ALERT Operation Metar Decoded Social comments